Time;durP1;ratioP1;P1;durP2;ratioP2;P2;SDS_P1;SDS_P2;PMS_P1;PMS_P2;Temp;Humidity;BMP_temperature;BMP_pressure;BME280_temperature;BME280_humidity;BME280_pressure;Samples;Min_cycle;Max_cycle;Signal;HPM_P1;HPM_P2
2019/07/30 00:00:39;;;;;;;26.1;23.3;;;;;;;19.89;90.68262;957.5595;;;;
2019/07/30 00:03:04;;;;;;;24.1;21.6;;;;;;;19.92;90.80566;957.5648;;;;
2019/07/30 00:05:29;;;;;;;25.1;21.8;;;;;;;19.94;90.81055;957.5634;;;;
2019/07/30 00:07:55;;;;;;;24.6;22.1;;;;;;;19.94;90.78711;957.5784;;;;
2019/07/30 00:10:20;;;;;;;24.4;21.8;;;;;;;19.86;90.5;957.5538;;;;
2019/07/30 00:12:45;;;;;;;25.2;22.6;;;;;;;19.81;90.03125;957.5714;;;;
2019/07/30 00:15:10;;;;;;;26.4;22.7;;;;;;;19.76;90.31543;957.5995;;;;
2019/07/30 00:17:35;;;;;;;26.1;21.9;;;;;;;19.72;90.74121;957.6111;;;;
2019/07/30 00:20:01;;;;;;;25.7;22.1;;;;;;;19.67;91.02734;957.6136;;;;
2019/07/30 00:22:26;;;;;;;25.9;23.2;;;;;;;19.63;90.73438;957.6507;;;;
2019/07/30 00:24:51;;;;;;;25.5;22.7;;;;;;;19.63;90.93457;957.7028;;;;
2019/07/30 00:27:17;;;;;;;28.2;23.2;;;;;;;19.62;90.9209;957.735;;;;
2019/07/30 00:29:42;;;;;;;26.6;23.8;;;;;;;19.58;90.67871;957.6994;;;;
2019/07/30 00:32:07;;;;;;;27.7;23.8;;;;;;;19.52;90.89063;957.7534;;;;
2019/07/30 00:34:33;;;;;;;30.7;25.5;;;;;;;19.39;91.29785;957.7849;;;;
2019/07/30 00:36:58;;;;;;;28.4;24.1;;;;;;;19.41;91.04102;957.7928;;;;
2019/07/30 00:39:23;;;;;;;29.1;24.7;;;;;;;19.46;90.76074;957.8553;;;;
2019/07/30 00:41:48;;;;;;;33.1;27.3;;;;;;;19.37;90.84766;957.8809;;;;
2019/07/30 00:44:13;;;;;;;30;26.6;;;;;;;19.3;91.47656;957.8917;;;;
2019/07/30 00:46:38;;;;;;;34;27.5;;;;;;;19.24;91.85352;957.8586;;;;
2019/07/30 00:49:04;;;;;;;34.2;27.7;;;;;;;19.29;90.98145;957.856;;;;
2019/07/30 00:51:29;;;;;;;32;27.7;;;;;;;19.41;90.36133;957.8621;;;;
2019/07/30 00:53:54;;;;;;;33.6;27.3;;;;;;;19.3;91.34766;957.8421;;;;
2019/07/30 00:56:19;;;;;;;35.1;28.1;;;;;;;19.32;91.07129;957.8976;;;;
2019/07/30 00:58:45;;;;;;;36.3;29.2;;;;;;;19.35;90.77148;957.9028;;;;
2019/07/30 01:01:10;;;;;;;35.8;29.5;;;;;;;19.17;91.89648;957.8951;;;;
2019/07/30 01:03:35;;;;;;;39.8;32;;;;;;;18.99;92.61035;957.8636;;;;
2019/07/30 01:06:00;;;;;;;36.4;30.6;;;;;;;18.97;93.19336;957.8706;;;;
2019/07/30 01:08:25;;;;;;;35.6;30.2;;;;;;;19.04;92.86816;957.8521;;;;
2019/07/30 01:10:50;;;;;;;39.6;31.5;;;;;;;18.93;93.4541;957.7869;;;;
2019/07/30 01:13:16;;;;;;;37.3;30.9;;;;;;;18.91;93.59082;957.7726;;;;
2019/07/30 01:15:41;;;;;;;35.8;30.7;;;;;;;18.78;93.99805;957.7654;;;;
2019/07/30 01:18:06;;;;;;;34.4;29;;;;;;;18.82;94.61523;957.7939;;;;
2019/07/30 01:20:31;;;;;;;30.3;26.5;;;;;;;18.96;93.55273;957.7676;;;;
2019/07/30 01:22:56;;;;;;;35.5;28.1;;;;;;;18.8;93.41504;957.761;;;;
2019/07/30 01:25:22;;;;;;;33.3;29.2;;;;;;;18.7;93.55859;957.713;;;;
2019/07/30 01:27:47;;;;;;;34.1;29.3;;;;;;;18.68;93.82227;957.7231;;;;
2019/07/30 01:30:12;;;;;;;33.7;30.1;;;;;;;18.62;93.7998;957.6868;;;;
2019/07/30 01:32:38;;;;;;;36;30.3;;;;;;;18.63;93.63672;957.7106;;;;
2019/07/30 01:35:03;;;;;;;35.6;29;;;;;;;18.69;92.88867;957.6897;;;;
2019/07/30 01:37:28;;;;;;;33.6;29.5;;;;;;;18.67;93.15234;957.7143;;;;
2019/07/30 01:39:54;;;;;;;31.7;28.3;;;;;;;18.61;93.36328;957.7564;;;;
2019/07/30 01:42:19;;;;;;;34.3;30.1;;;;;;;18.55;93.77246;957.7557;;;;
2019/07/30 01:44:44;;;;;;;32.7;29.2;;;;;;;18.64;92.51367;957.7783;;;;
2019/07/30 01:47:09;;;;;;;36.5;29.8;;;;;;;18.63;92.69727;957.7619;;;;
2019/07/30 01:51:36;;;;;;;34.5;29.5;;;;;;;18.48;93.45215;957.7186;;;;
2019/07/30 01:54:01;;;;;;;36.6;29.9;;;;;;;18.41;94.02344;957.676;;;;
2019/07/30 01:56:26;;;;;;;35.4;30.5;;;;;;;18.38;94.4043;957.688;;;;
2019/07/30 01:58:51;;;;;;;34.5;29.9;;;;;;;18.4;94.23242;957.7003;;;;
2019/07/30 02:01:16;;;;;;;34;28.8;;;;;;;18.47;94.46973;957.7245;;;;
2019/07/30 02:03:41;;;;;;;35.8;29.1;;;;;;;18.41;94.32813;957.6992;;;;
2019/07/30 02:06:07;;;;;;;34.4;28.8;;;;;;;18.45;93.7627;957.6877;;;;
2019/07/30 02:08:32;;;;;;;34.7;29.4;;;;;;;18.39;94.26367;957.6813;;;;
2019/07/30 02:10:57;;;;;;;34;28.7;;;;;;;18.38;93.74805;957.6831;;;;
2019/07/30 02:13:22;;;;;;;34.5;28.8;;;;;;;18.38;93.98242;957.6674;;;;
2019/07/30 02:15:47;;;;;;;34.1;28.8;;;;;;;18.36;94.375;957.7063;;;;
2019/07/30 02:18:12;;;;;;;37.1;29.1;;;;;;;18.32;94.35742;957.6797;;;;
2019/07/30 02:20:37;;;;;;;33.7;28.6;;;;;;;18.33;94.66406;957.7249;;;;
2019/07/30 02:23:02;;;;;;;33.5;29.5;;;;;;;18.3;94;957.713;;;;
2019/07/30 02:25:27;;;;;;;34.3;27.8;;;;;;;18.36;94.41016;957.699;;;;
2019/07/30 02:27:52;;;;;;;30.7;26.4;;;;;;;18.4;94.38477;957.7084;;;;
2019/07/30 02:30:17;;;;;;;30.4;26.6;;;;;;;18.43;94.46094;957.6856;;;;
2019/07/30 02:32:42;;;;;;;32.8;28.6;;;;;;;18.27;95.62305;957.6564;;;;
2019/07/30 02:35:08;;;;;;;33;28.2;;;;;;;18.28;95.37891;957.673;;;;
2019/07/30 02:37:33;;;;;;;32.3;27.4;;;;;;;18.29;94.74805;957.7131;;;;
2019/07/30 02:39:58;;;;;;;30.9;27.2;;;;;;;18.31;94.92969;957.7137;;;;
2019/07/30 02:42:23;;;;;;;32.6;27.4;;;;;;;18.43;93.33594;957.7079;;;;
2019/07/30 02:44:48;;;;;;;32;27.8;;;;;;;18.32;93.51172;957.7136;;;;
2019/07/30 02:47:13;;;;;;;33.1;29.5;;;;;;;18.19;94.48047;957.7452;;;;
2019/07/30 02:49:38;;;;;;;34.3;29;;;;;;;18.16;94.91992;957.7737;;;;
2019/07/30 02:52:03;;;;;;;31;27.5;;;;;;;18.17;94.33496;957.7858;;;;
2019/07/30 02:54:29;;;;;;;32;28.5;;;;;;;18.2;93.76855;957.806;;;;
2019/07/30 02:56:54;;;;;;;30.7;27.3;;;;;;;18.23;93.81152;957.7964;;;;
2019/07/30 02:59:19;;;;;;;32.7;28;;;;;;;18.21;94.70703;957.8148;;;;
2019/07/30 03:01:44;;;;;;;29.8;26.5;;;;;;;18.26;93.9082;957.802;;;;
2019/07/30 03:04:09;;;;;;;31.2;27.1;;;;;;;18.26;94.21289;957.8638;;;;
2019/07/30 03:06:34;;;;;;;34;28.3;;;;;;;18.21;93.9209;957.8719;;;;
2019/07/30 03:08:59;;;;;;;32.7;27.8;;;;;;;18.23;94.05469;957.8914;;;;
2019/07/30 03:11:24;;;;;;;31;27.2;;;;;;;18.19;94.08301;957.8878;;;;
2019/07/30 03:13:49;;;;;;;32.6;27.8;;;;;;;18.1;94.49512;957.8906;;;;
2019/07/30 03:16:15;;;;;;;31;26.9;;;;;;;18.07;94.58301;957.9439;;;;
2019/07/30 03:18:40;;;;;;;33.3;29.1;;;;;;;18.01;94.60645;957.9323;;;;
2019/07/30 03:21:05;;;;;;;33.4;28.5;;;;;;;18.04;94.64746;957.9229;;;;
2019/07/30 03:23:30;;;;;;;32.3;28.2;;;;;;;17.97;95.74609;957.9598;;;;
2019/07/30 03:25:55;;;;;;;36.2;28.9;;;;;;;17.97;95.36914;957.9583;;;;
2019/07/30 03:28:20;;;;;;;31.5;27.7;;;;;;;17.92;95.10156;957.9598;;;;
2019/07/30 03:30:45;;;;;;;32.4;28.4;;;;;;;17.88;95.17383;957.9197;;;;
2019/07/30 03:33:10;;;;;;;32.4;28.8;;;;;;;17.86;96.54004;957.9844;;;;
2019/07/30 03:35:35;;;;;;;34.8;29.1;;;;;;;17.83;95.82031;957.9931;;;;
2019/07/30 03:38:00;;;;;;;34;29.2;;;;;;;17.79;95.97363;957.9868;;;;
2019/07/30 03:40:25;;;;;;;32.9;29.4;;;;;;;17.77;96.33496;957.9871;;;;
2019/07/30 03:42:51;;;;;;;33.8;29;;;;;;;17.83;95.99512;957.937;;;;
2019/07/30 03:45:16;;;;;;;37.3;29.9;;;;;;;17.8;96.67773;957.9727;;;;
2019/07/30 03:47:41;;;;;;;34;29;;;;;;;17.93;95.52539;957.9803;;;;
2019/07/30 03:50:06;;;;;;;32.6;29.1;;;;;;;17.95;94.96582;957.9692;;;;
2019/07/30 03:52:31;;;;;;;31.5;27.9;;;;;;;17.94;94.89355;957.9752;;;;
2019/07/30 03:54:56;;;;;;;32.7;28;;;;;;;17.89;95.04785;957.9938;;;;
2019/07/30 03:57:21;;;;;;;31.3;27.4;;;;;;;17.88;95.39648;958.046;;;;
2019/07/30 03:59:46;;;;;;;31.8;28.1;;;;;;;17.77;95.9209;958.1292;;;;
2019/07/30 04:02:26;;;;;;;33.5;28.3;;;;;;;17.81;95.79102;958.1086;;;;
2019/07/30 04:04:51;;;;;;;31.3;27.9;;;;;;;17.8;95.63672;958.139;;;;
2019/07/30 04:07:16;;;;;;;35.2;28.7;;;;;;;17.79;96.33691;958.1649;;;;
2019/07/30 04:09:41;;;;;;;32.2;28.8;;;;;;;17.77;95.77148;958.1551;;;;
2019/07/30 04:12:07;;;;;;;32.6;29;;;;;;;17.81;95.50977;958.2034;;;;
2019/07/30 04:14:32;;;;;;;33.8;29.8;;;;;;;17.84;95.12012;958.241;;;;
2019/07/30 04:16:57;;;;;;;34.2;29.2;;;;;;;17.86;96.56348;958.2352;;;;
2019/07/30 04:19:22;;;;;;;34.3;29;;;;;;;17.94;95.43164;958.2406;;;;
2019/07/30 04:21:47;;;;;;;34.9;29.6;;;;;;;17.97;95.10938;958.2247;;;;
2019/07/30 04:24:12;;;;;;;34;29.7;;;;;;;18;95.52734;958.2491;;;;
2019/07/30 04:26:37;;;;;;;34.8;29.5;;;;;;;18;95.38867;958.2802;;;;
2019/07/30 04:29:03;;;;;;;34.7;29.5;;;;;;;18.03;94.30566;958.322;;;;
2019/07/30 04:31:27;;;;;;;33.5;28.9;;;;;;;18.09;94.04785;958.3032;;;;
2019/07/30 04:33:53;;;;;;;31.4;28.1;;;;;;;18.03;94.42285;958.341;;;;
2019/07/30 04:36:18;;;;;;;37.4;29.8;;;;;;;18.03;94.35254;958.3361;;;;
2019/07/30 04:38:43;;;;;;;33.4;28.6;;;;;;;18.04;94.88086;958.3873;;;;
2019/07/30 04:41:08;;;;;;;31.6;27;;;;;;;18.02;94.62012;958.3972;;;;
2019/07/30 04:43:33;;;;;;;32.4;26.8;;;;;;;18.06;94.60449;958.4322;;;;
2019/07/30 04:45:58;;;;;;;29.3;26.1;;;;;;;18.05;94.23926;958.4595;;;;
2019/07/30 04:48:23;;;;;;;30.4;26.4;;;;;;;18.06;94.83789;958.4495;;;;
2019/07/30 04:50:48;;;;;;;32;28.5;;;;;;;18.06;94.74707;958.4585;;;;
2019/07/30 04:53:13;;;;;;;30.6;27.3;;;;;;;18.03;94.5752;958.4738;;;;
2019/07/30 04:55:38;;;;;;;29.1;26.1;;;;;;;18.1;93.56934;958.5405;;;;
2019/07/30 04:58:04;;;;;;;29.8;26.6;;;;;;;18.12;92.66211;958.5502;;;;
2019/07/30 05:00:29;;;;;;;29.9;25.7;;;;;;;18.2;92.43262;958.5798;;;;
2019/07/30 05:02:54;;;;;;;29.2;26;;;;;;;18.31;92.39746;958.577;;;;
2019/07/30 05:05:19;;;;;;;29.8;26.6;;;;;;;18.39;92.44922;958.5823;;;;
2019/07/30 05:07:44;;;;;;;30.8;26;;;;;;;18.44;91.83984;958.556;;;;
2019/07/30 05:10:09;;;;;;;27.6;24.6;;;;;;;18.61;91.83984;958.5712;;;;
2019/07/30 05:12:34;;;;;;;29.9;26.7;;;;;;;18.64;91.98633;958.5675;;;;
2019/07/30 05:14:59;;;;;;;33;29.4;;;;;;;18.8;90.39941;958.6019;;;;
2019/07/30 05:17:24;;;;;;;30;26.7;;;;;;;18.89;90.5957;958.6128;;;;
2019/07/30 05:19:49;;;;;;;33.3;27.2;;;;;;;18.94;90.33691;958.6336;;;;
2019/07/30 05:22:14;;;;;;;32.6;28;;;;;;;18.98;90.6377;958.6677;;;;
2019/07/30 05:24:40;;;;;;;36.9;30.6;;;;;;;18.94;91.32227;958.7153;;;;
2019/07/30 05:27:05;;;;;;;31.9;28.4;;;;;;;19.2;88.54492;958.7377;;;;
2019/07/30 05:29:30;;;;;;;34;29.2;;;;;;;19.1;89.16113;958.7327;;;;
2019/07/30 05:31:55;;;;;;;32.4;28.1;;;;;;;19.28;87.95117;958.7869;;;;
2019/07/30 05:34:20;;;;;;;33.8;29.4;;;;;;;19.11;88.97266;958.7861;;;;
2019/07/30 05:36:45;;;;;;;35.3;29.9;;;;;;;19.07;91.13477;958.7877;;;;
2019/07/30 05:39:11;;;;;;;35;30.1;;;;;;;19.04;89.125;958.7648;;;;
2019/07/30 05:41:36;;;;;;;33.4;29.7;;;;;;;19.01;89.88184;958.7902;;;;
2019/07/30 05:44:01;;;;;;;34.6;29.6;;;;;;;19.21;88.26563;958.8477;;;;
2019/07/30 05:46:26;;;;;;;33.7;29.1;;;;;;;19.15;89.53418;958.8733;;;;
2019/07/30 05:48:51;;;;;;;32.8;29.3;;;;;;;19.14;88.80273;958.8527;;;;
2019/07/30 05:51:16;;;;;;;35.1;29.7;;;;;;;19.06;88.99707;958.8483;;;;
2019/07/30 05:53:41;;;;;;;34.5;29.4;;;;;;;19.11;88.38672;958.8514;;;;
2019/07/30 05:56:06;;;;;;;33;29;;;;;;;19.07;90.41895;958.8588;;;;
2019/07/30 05:58:31;;;;;;;34.9;28.9;;;;;;;19.15;89.19336;958.8873;;;;
2019/07/30 06:00:57;;;;;;;32.3;28.9;;;;;;;19.13;89.21191;958.9091;;;;
2019/07/30 06:03:22;;;;;;;33;28.3;;;;;;;19.21;89.73438;958.9111;;;;
2019/07/30 06:05:47;;;;;;;34;27.5;;;;;;;19.42;88.41406;958.9556;;;;
2019/07/30 06:08:12;;;;;;;32;28.6;;;;;;;19.42;87.7207;958.95;;;;
2019/07/30 06:10:51;;;;;;;29.7;26.5;;;;;;;19.41;88.54102;958.972;;;;
2019/07/30 06:13:02;;;;;;;31.7;28;;;;;;;19.41;87.4375;959.03;;;;
2019/07/30 06:15:28;;;;;;;31;27;;;;;;;19.5;87.70215;959.0112;;;;
2019/07/30 06:17:53;;;;;;;34.5;28.4;;;;;;;19.27;87.30371;959.035;;;;
2019/07/30 06:20:18;;;;;;;31.6;28.2;;;;;;;19.34;87.50488;959.0438;;;;
2019/07/30 06:22:43;;;;;;;33.1;28.3;;;;;;;19.37;88.9668;959.0985;;;;
2019/07/30 06:25:09;;;;;;;31.6;28.3;;;;;;;19.42;87.8623;959.0829;;;;
2019/07/30 06:27:34;;;;;;;28.5;25;;;;;;;19.6;87.81543;959.0717;;;;
2019/07/30 06:29:59;;;;;;;31.2;26.9;;;;;;;19.59;87.63574;959.0999;;;;
2019/07/30 06:32:24;;;;;;;27.7;24.7;;;;;;;19.65;87.16797;959.1031;;;;
2019/07/30 06:34:50;;;;;;;31.5;26.7;;;;;;;19.65;87.89648;959.1356;;;;
2019/07/30 06:37:15;;;;;;;31.8;28.4;;;;;;;19.58;86.66016;959.1231;;;;
2019/07/30 06:39:40;;;;;;;31.4;28;;;;;;;19.57;85.19043;959.1152;;;;
2019/07/30 06:42:05;;;;;;;30.7;27.3;;;;;;;19.67;85.73828;959.1311;;;;
2019/07/30 06:44:30;;;;;;;30.7;26.6;;;;;;;19.77;85.99219;959.2285;;;;
2019/07/30 06:46:55;;;;;;;30.4;25.6;;;;;;;20.11;83.12891;959.2622;;;;
2019/07/30 06:49:21;;;;;;;28.3;24.8;;;;;;;20.11;84.25879;959.2342;;;;
2019/07/30 06:51:46;;;;;;;29.1;25.6;;;;;;;20.19;83.0625;959.2475;;;;
2019/07/30 06:54:11;;;;;;;27.7;24.2;;;;;;;20.17;84.34082;959.2536;;;;
2019/07/30 06:56:36;;;;;;;26.6;23.5;;;;;;;20.26;84.05078;959.2668;;;;
2019/07/30 06:59:02;;;;;;;28.6;24;;;;;;;20.4;83.20801;959.2392;;;;
2019/07/30 07:01:27;;;;;;;27.9;23.8;;;;;;;20.47;83.44238;959.2644;;;;
2019/07/30 07:03:52;;;;;;;27.6;23.6;;;;;;;20.57;82.99316;959.2159;;;;
2019/07/30 07:06:17;;;;;;;28.8;24.3;;;;;;;20.53;82.25293;959.2561;;;;
2019/07/30 07:08:42;;;;;;;26.1;23.2;;;;;;;20.69;81.43652;959.2689;;;;
2019/07/30 07:11:08;;;;;;;30.9;24.6;;;;;;;20.63;80.45898;959.2861;;;;
2019/07/30 07:13:33;;;;;;;28.2;23.4;;;;;;;20.69;81.49414;959.2617;;;;
2019/07/30 07:15:58;;;;;;;28.9;25;;;;;;;20.68;80.75;959.2877;;;;
2019/07/30 07:18:23;;;;;;;26.8;23.9;;;;;;;20.82;80.02246;959.2978;;;;
2019/07/30 07:20:48;;;;;;;27.4;23.1;;;;;;;20.91;80.80469;959.3549;;;;
2019/07/30 07:23:13;;;;;;;27.6;24.6;;;;;;;20.99;81.19629;959.3812;;;;
2019/07/30 07:25:38;;;;;;;28.3;24.7;;;;;;;20.85;80.9834;959.3452;;;;
2019/07/30 07:28:04;;;;;;;25.5;22.8;;;;;;;21.16;80.41406;959.3169;;;;
2019/07/30 07:30:29;;;;;;;26.5;22.4;;;;;;;21.36;79.64941;959.3557;;;;
2019/07/30 07:35:19;;;;;;;25.4;22.7;;;;;;;21.38;78.05957;959.3002;;;;
2019/07/30 07:37:44;;;;;;;23.3;20.8;;;;;;;21.6;75.39648;959.3458;;;;
2019/07/30 07:40:09;;;;;;;24.6;21.2;;;;;;;21.51;76.94922;959.3554;;;;
2019/07/30 07:42:34;;;;;;;23.6;20.9;;;;;;;21.34;77.66406;959.3881;;;;
2019/07/30 07:45:00;;;;;;;23.1;20.6;;;;;;;21.45;77.60059;959.3702;;;;
2019/07/30 07:47:25;;;;;;;24.1;20.8;;;;;;;21.38;77.41113;959.3658;;;;
2019/07/30 07:49:50;;;;;;;21.7;19.3;;;;;;;21.4;77.89746;959.3788;;;;
2019/07/30 07:52:15;;;;;;;25;20.6;;;;;;;21.24;78.80078;959.3398;;;;
2019/07/30 07:54:40;;;;;;;24.3;21.7;;;;;;;21.04;78.68164;959.3752;;;;
2019/07/30 07:57:05;;;;;;;26.1;22.6;;;;;;;21.05;78.68652;959.3514;;;;
2019/07/30 07:59:30;;;;;;;23.9;21.5;;;;;;;21.1;78.89551;959.3231;;;;
2019/07/30 08:01:56;;;;;;;26.4;23.3;;;;;;;21.17;77.61133;959.3512;;;;
2019/07/30 08:04:21;;;;;;;23.6;20.7;;;;;;;21.38;78.14063;959.3377;;;;
2019/07/30 08:06:46;;;;;;;24.6;19.8;;;;;;;21.58;77.03223;959.338;;;;
2019/07/30 08:09:11;;;;;;;20.5;18.3;;;;;;;21.63;76.08594;959.3424;;;;
2019/07/30 08:11:37;;;;;;;21.7;19.4;;;;;;;21.76;76.5459;959.3033;;;;
2019/07/30 08:14:02;;;;;;;21.1;18.4;;;;;;;21.78;76.26563;959.2889;;;;
2019/07/30 08:16:27;;;;;;;20.2;16.7;;;;;;;22.17;74.25195;959.2916;;;;
2019/07/30 08:18:52;;;;;;;19.2;17.1;;;;;;;22.27;74.45703;959.2904;;;;
2019/07/30 08:21:17;;;;;;;20.3;17.4;;;;;;;22.29;74.29492;959.2866;;;;
2019/07/30 08:23:42;;;;;;;19.9;16.4;;;;;;;22.37;74.65137;959.2745;;;;
2019/07/30 08:26:08;;;;;;;21.6;17.1;;;;;;;22.38;73.0918;959.2952;;;;
2019/07/30 08:28:33;;;;;;;17;15.2;;;;;;;22.46;73.56641;959.325;;;;
2019/07/30 08:30:58;;;;;;;16.8;15;;;;;;;22.57;73.46777;959.327;;;;
2019/07/30 08:33:23;;;;;;;19.4;16.2;;;;;;;22.48;74.11328;959.2972;;;;
2019/07/30 08:35:49;;;;;;;17.4;15.5;;;;;;;22.72;73.73926;959.3361;;;;
2019/07/30 08:38:14;;;;;;;16.3;14.7;;;;;;;22.76;74.4668;959.2889;;;;
2019/07/30 08:40:39;;;;;;;16.2;14.1;;;;;;;22.87;72.47461;959.2367;;;;
2019/07/30 08:43:04;;;;;;;16.7;15;;;;;;;23.2;70.39648;959.2519;;;;
2019/07/30 08:45:29;;;;;;;18.2;15.9;;;;;;;23.11;71.98145;959.2299;;;;
2019/07/30 08:47:54;;;;;;;17.3;15.5;;;;;;;22.96;71.51855;959.2452;;;;
2019/07/30 08:50:20;;;;;;;18.9;15.8;;;;;;;22.93;71.15918;959.19;;;;
2019/07/30 08:52:45;;;;;;;18.4;15.8;;;;;;;22.92;71.53516;959.2372;;;;
2019/07/30 08:55:10;;;;;;;16.6;14.9;;;;;;;22.9;71.24805;959.2841;;;;
2019/07/30 08:57:35;;;;;;;18.4;15.9;;;;;;;22.98;70.34961;959.3088;;;;
2019/07/30 09:00:00;;;;;;;17.6;14.9;;;;;;;22.99;73.09766;959.3531;;;;
2019/07/30 09:02:25;;;;;;;19;16.8;;;;;;;22.84;71.92383;959.3882;;;;
2019/07/30 09:04:51;;;;;;;19.7;17.6;;;;;;;22.62;71.59375;959.3256;;;;
2019/07/30 09:07:16;;;;;;;18.4;16.4;;;;;;;22.65;73.04297;959.3405;;;;
2019/07/30 09:09:41;;;;;;;17.6;15.8;;;;;;;22.57;73.33691;959.3717;;;;
2019/07/30 09:12:06;;;;;;;17.1;15.3;;;;;;;22.86;73.0293;959.3561;;;;
2019/07/30 09:14:31;;;;;;;18.6;16.6;;;;;;;22.89;72.1582;959.4058;;;;
2019/07/30 09:16:57;;;;;;;18.4;16.4;;;;;;;22.75;71.85254;959.4423;;;;
2019/07/30 09:19:22;;;;;;;18.8;16.4;;;;;;;22.69;72.18555;959.4108;;;;
2019/07/30 09:21:47;;;;;;;17.9;16.1;;;;;;;22.53;72.99902;959.3697;;;;
2019/07/30 09:24:12;;;;;;;18.8;16.8;;;;;;;22.56;73.12305;959.3778;;;;
2019/07/30 09:26:37;;;;;;;18.7;16.7;;;;;;;22.63;72.86133;959.3834;;;;
2019/07/30 09:29:02;;;;;;;20;17.2;;;;;;;22.25;73.67285;959.389;;;;
2019/07/30 09:31:27;;;;;;;22.3;19.9;;;;;;;22.28;73.90332;959.3641;;;;
2019/07/30 09:33:52;;;;;;;19.1;17.1;;;;;;;22.19;74.17383;959.3522;;;;
2019/07/30 09:36:17;;;;;;;18.5;16.6;;;;;;;22.34;74.41016;959.334;;;;
2019/07/30 09:38:43;;;;;;;19.3;17.2;;;;;;;22.51;73.04297;959.278;;;;
2019/07/30 09:41:08;;;;;;;17.4;15.4;;;;;;;22.43;72.6748;959.3365;;;;
2019/07/30 09:43:33;;;;;;;15.5;13.9;;;;;;;22.37;73.6582;959.2967;;;;
2019/07/30 09:45:59;;;;;;;18.5;14.2;;;;;;;22.42;73.03906;959.2873;;;;
2019/07/30 09:48:24;;;;;;;16;14.3;;;;;;;22.49;72.36621;959.3067;;;;
2019/07/30 09:50:49;;;;;;;15.3;13.7;;;;;;;22.53;72.57324;959.2825;;;;
2019/07/30 09:53:14;;;;;;;15.1;13.1;;;;;;;22.67;72.81055;959.2559;;;;
2019/07/30 09:55:39;;;;;;;16.6;14.5;;;;;;;22.58;72.16602;959.2336;;;;
2019/07/30 09:58:04;;;;;;;14.8;13;;;;;;;22.73;73.04297;959.2483;;;;
2019/07/30 10:00:29;;;;;;;16.3;14.5;;;;;;;22.95;71.55371;959.2122;;;;
2019/07/30 10:02:55;;;;;;;16.1;14.5;;;;;;;22.88;72.03906;959.1766;;;;
2019/07/30 10:05:20;;;;;;;16.6;14.8;;;;;;;22.97;72.20605;959.1558;;;;
2019/07/30 10:07:45;;;;;;;19.7;14.7;;;;;;;23.04;71.4248;959.1903;;;;
2019/07/30 10:10:11;;;;;;;16.1;14.5;;;;;;;23.14;70.45801;959.15;;;;
2019/07/30 10:12:36;;;;;;;16;14.2;;;;;;;22.95;70.51074;959.1649;;;;
2019/07/30 10:15:01;;;;;;;15.5;13.9;;;;;;;23.07;70.86035;959.1041;;;;
2019/07/30 10:17:27;;;;;;;17;13.3;;;;;;;23.12;70.36035;959.1064;;;;
2019/07/30 10:19:52;;;;;;;13.7;10.9;;;;;;;23.32;70.34473;959.1149;;;;
2019/07/30 10:22:17;;;;;;;14.3;10.2;;;;;;;23.67;67.71875;959.1256;;;;
2019/07/30 10:24:42;;;;;;;10.9;8.7;;;;;;;23.82;67.5166;959.0981;;;;
2019/07/30 10:29:32;;;;;;;11.3;7.8;;;;;;;23.79;65.78125;959.0801;;;;
2019/07/30 10:31:58;;;;;;;8.6;6.8;;;;;;;23.79;66.55176;959.0792;;;;
2019/07/30 10:34:23;;;;;;;8.1;6.8;;;;;;;23.92;67.17578;959.1024;;;;
2019/07/30 10:36:48;;;;;;;11.7;8.2;;;;;;;24.01;65.10059;959.1501;;;;
2019/07/30 10:39:14;;;;;;;9.8;6.9;;;;;;;23.9;65.13281;959.1788;;;;
2019/07/30 10:41:39;;;;;;;8.2;7.3;;;;;;;23.98;65.28711;959.1728;;;;
2019/07/30 10:44:04;;;;;;;8.3;7;;;;;;;24.01;65.68262;959.1998;;;;
2019/07/30 10:46:29;;;;;;;10.1;7.2;;;;;;;24.06;65.2041;959.1651;;;;
2019/07/30 10:48:54;;;;;;;9.4;7;;;;;;;23.87;65.79297;959.1507;;;;
2019/07/30 10:51:20;;;;;;;8.6;5.9;;;;;;;24.11;64.93848;959.1531;;;;
2019/07/30 10:53:45;;;;;;;10.5;7.4;;;;;;;24.43;64.47363;959.1253;;;;
2019/07/30 10:56:10;;;;;;;10;6.5;;;;;;;24.65;64.91113;959.0798;;;;
2019/07/30 10:58:35;;;;;;;10.6;8;;;;;;;24.54;64.2168;959.0823;;;;
2019/07/30 11:01:00;;;;;;;8.9;6.4;;;;;;;24.74;62.74805;959.079;;;;
2019/07/30 11:03:26;;;;;;;7.7;6.9;;;;;;;24.84;62.3457;959.0262;;;;
2019/07/30 11:05:51;;;;;;;7.4;6.4;;;;;;;24.87;62.97949;959.0167;;;;
2019/07/30 11:08:16;;;;;;;7.9;5.4;;;;;;;25;61.07031;958.9967;;;;
2019/07/30 11:10:41;;;;;;;8.5;6.7;;;;;;;24.72;62.45996;959.0663;;;;
2019/07/30 11:13:06;;;;;;;6.4;5.2;;;;;;;24.92;60.98926;959.0089;;;;
2019/07/30 11:15:31;;;;;;;8.4;5.6;;;;;;;24.89;60.85449;959.0725;;;;
2019/07/30 11:17:56;;;;;;;9.3;6.2;;;;;;;24.7;62.93164;959.0439;;;;
2019/07/30 11:20:21;;;;;;;7.7;6;;;;;;;24.75;61.54785;958.9928;;;;
2019/07/30 11:22:47;;;;;;;8.9;6.8;;;;;;;24.51;62.64355;958.9534;;;;
2019/07/30 11:25:12;;;;;;;9.2;6.4;;;;;;;24.38;63.83594;958.9838;;;;
2019/07/30 11:27:37;;;;;;;7.7;6.7;;;;;;;24.51;63.36816;958.9558;;;;
2019/07/30 11:30:02;;;;;;;13.6;6.9;;;;;;;24.47;63.99316;958.949;;;;
2019/07/30 11:32:28;;;;;;;9;6.6;;;;;;;24.57;63.99512;958.9221;;;;
2019/07/30 11:34:53;;;;;;;7.6;6.2;;;;;;;24.54;64.22754;958.9208;;;;
2019/07/30 11:37:18;;;;;;;13.9;6.4;;;;;;;24.56;64.56445;958.9149;;;;
2019/07/30 11:39:43;;;;;;;8.2;6.9;;;;;;;24.47;64.08789;958.9;;;;
2019/07/30 11:42:09;;;;;;;10;6.2;;;;;;;24.45;64.41699;958.9164;;;;
2019/07/30 11:44:34;;;;;;;8.1;6.5;;;;;;;24.67;63.89063;958.9148;;;;
2019/07/30 11:46:59;;;;;;;12.2;6.8;;;;;;;24.86;63.47852;958.8936;;;;
2019/07/30 11:49:24;;;;;;;14.2;6.5;;;;;;;25.03;62.28809;958.8851;;;;
2019/07/30 11:51:49;;;;;;;16.8;6.6;;;;;;;25.08;61.24902;958.8531;;;;
2019/07/30 11:54:15;;;;;;;16.7;6.2;;;;;;;25.42;61.40137;958.856;;;;
2019/07/30 11:56:40;;;;;;;7;5.6;;;;;;;25.43;60.58301;958.8397;;;;
2019/07/30 11:59:05;;;;;;;7.2;5.3;;;;;;;25.6;58.99805;958.8133;;;;
2019/07/30 12:01:30;;;;;;;6.3;5.2;;;;;;;25.77;60.02148;958.7947;;;;
2019/07/30 12:03:56;;;;;;;6.5;4.8;;;;;;;25.64;57.49121;958.8044;;;;
2019/07/30 12:06:21;;;;;;;4.2;3.8;;;;;;;25.82;56.83398;958.7787;;;;
2019/07/30 12:08:46;;;;;;;5.6;4.3;;;;;;;25.84;56.2168;958.7277;;;;
2019/07/30 12:11:11;;;;;;;4.6;3.8;;;;;;;25.82;54.96484;958.7051;;;;
2019/07/30 12:13:36;;;;;;;7.6;5.2;;;;;;;25.83;56.06152;958.6861;;;;
2019/07/30 12:16:01;;;;;;;11.9;6.1;;;;;;;25.57;57.12402;958.6779;;;;
2019/07/30 12:18:27;;;;;;;13.8;5.9;;;;;;;25.37;59.8125;958.606;;;;
2019/07/30 12:20:52;;;;;;;11.1;8.7;;;;;;;25.5;58.88965;958.5652;;;;
2019/07/30 12:23:17;;;;;;;7.2;5.3;;;;;;;25.64;58.33594;958.575;;;;
2019/07/30 12:25:42;;;;;;;6.8;5.2;;;;;;;25.49;57.97168;958.5007;;;;
2019/07/30 12:28:08;;;;;;;6.5;5.1;;;;;;;25.76;59.66211;958.5737;;;;
2019/07/30 12:30:33;;;;;;;5.4;4.8;;;;;;;25.71;58.55957;958.5851;;;;
2019/07/30 12:32:59;;;;;;;5.2;4.5;;;;;;;25.91;56.34473;958.5386;;;;
2019/07/30 12:35:24;;;;;;;6.3;4.3;;;;;;;25.97;57.0918;958.4283;;;;
2019/07/30 12:37:49;;;;;;;6.8;4.5;;;;;;;26.13;57.24414;958.3883;;;;
2019/07/30 12:40:14;;;;;;;5.1;3.8;;;;;;;26.32;56.60059;958.4326;;;;
2019/07/30 12:42:39;;;;;;;5;3.6;;;;;;;26.64;54.37207;958.4459;;;;
2019/07/30 12:45:04;;;;;;;4.7;3.5;;;;;;;26.62;53.43848;958.4185;;;;
2019/07/30 12:47:29;;;;;;;4.8;4;;;;;;;26.98;54.99805;958.4133;;;;
2019/07/30 12:49:54;;;;;;;5.2;3.9;;;;;;;26.87;54.43652;958.4127;;;;
2019/07/30 12:52:20;;;;;;;6.1;3.6;;;;;;;27.18;52.33398;958.4176;;;;
2019/07/30 12:54:45;;;;;;;4.6;3.3;;;;;;;27.18;49.63379;958.4574;;;;
2019/07/30 12:57:10;;;;;;;4;3.1;;;;;;;27.41;49.6709;958.4316;;;;
2019/07/30 12:59:35;;;;;;;5;3.4;;;;;;;27.39;50.69629;958.3889;;;;
2019/07/30 13:02:01;;;;;;;6.3;3.3;;;;;;;27.39;49.93164;958.407;;;;
2019/07/30 13:04:26;;;;;;;4.2;2.8;;;;;;;27.46;48.30078;958.3575;;;;
2019/07/30 13:06:51;;;;;;;3.1;2.5;;;;;;;27.65;49.46973;958.2822;;;;
2019/07/30 13:09:16;;;;;;;2.8;2.5;;;;;;;27.96;47.34961;958.2554;;;;
2019/07/30 13:11:41;;;;;;;5;4.2;;;;;;;27.94;48.75977;958.3069;;;;
2019/07/30 13:14:07;;;;;;;5;3.5;;;;;;;28.18;49.41895;958.2297;;;;
2019/07/30 13:16:32;;;;;;;4.2;2.8;;;;;;;28.26;46.99707;958.2472;;;;
2019/07/30 13:18:57;;;;;;;5;3.7;;;;;;;28.11;46.39551;958.2239;;;;
2019/07/30 13:21:22;;;;;;;3.3;2.6;;;;;;;27.55;48.41797;958.231;;;;
2019/07/30 13:23:48;;;;;;;3.2;2.9;;;;;;;27.45;47.84473;958.2208;;;;
2019/07/30 13:26:13;;;;;;;3.1;2.2;;;;;;;27.63;46.28516;958.2092;;;;
2019/07/30 13:31:03;;;;;;;5.1;2.5;;;;;;;27.79;47.72559;958.1889;;;;
2019/07/30 13:33:28;;;;;;;3.8;2.8;;;;;;;28;47.47266;958.1763;;;;
2019/07/30 13:35:54;;;;;;;4.1;3.2;;;;;;;28.3;46.77441;958.0849;;;;
2019/07/30 13:38:19;;;;;;;5;2.7;;;;;;;28.04;47.93164;958.0923;;;;
2019/07/30 13:40:44;;;;;;;3.1;2.4;;;;;;;28.04;48.21973;958.0494;;;;
2019/07/30 13:43:09;;;;;;;2.9;2.5;;;;;;;27.62;48.96387;958.0516;;;;
2019/07/30 13:45:34;;;;;;;4.4;2.9;;;;;;;27.78;48.64648;958.0083;;;;
2019/07/30 13:47:59;;;;;;;5.4;4;;;;;;;27.45;50.24902;957.978;;;;
2019/07/30 13:50:24;;;;;;;9.1;7.1;;;;;;;27.47;51.73438;957.968;;;;
2019/07/30 13:54:10;;;;;;;6.2;3.9;;;;;;;26.62;52.2207;957.9311;;;;
2019/07/30 13:56:35;;;;;;;3.9;3.5;;;;;;;26.56;51.93945;957.9514;;;;
2019/07/30 13:59:00;;;;;;;9.7;4;;;;;;;26.62;52.39941;957.9444;;;;
2019/07/30 14:01:25;;;;;;;3.9;3.1;;;;;;;26.55;52.17676;957.9149;;;;
2019/07/30 14:03:50;;;;;;;3.6;3.3;;;;;;;26.62;51.85156;957.9041;;;;
2019/07/30 14:06:15;;;;;;;7;4.1;;;;;;;26.51;52.7207;957.8483;;;;